Eaton, Illinois
Current Conditions -  °F | °C
As of 7:55 PM on Saturday 22 Nov 2014 (Local Time) from KRSV Reporting Station
Overcast Overcast  
Wind Chill: 56°   Ceiling: 5000
Heat Index: 56°   Visibility: 10mi
Dew Point: 41°   Wind: 8mph
Humidity: 56%   Direction: 180°S
Pressure: 30.01"   Gusts: NA
Location:  39.0131°N, 87.7657°W
Report Text: KRSV 230155Z AUTO 18007KT 10SM OVC050 13/05 A3001 RMK AO2 T01330048
Loading
Personal Weather Stations






























Interactive Weather Map New forecast layout! Learn more

10-Day Weather Forecast

Advertisements
Track Severe Weather on mobile